sensor_id;sensor_type;location;lat;lon;timestamp;P1;durP1;ratioP1;P2;durP2;ratioP2
3591;SDS011;1810;48.720;9.094;2023-09-30T00:00:38;518.38;;;491.17;;
3591;SDS011;1810;48.720;9.094;2023-09-30T00:03:07;647.63;;;611.05;;
3591;SDS011;1810;48.720;9.094;2023-09-30T00:05:37;622.95;;;588.45;;
3591;SDS011;1810;48.720;9.094;2023-09-30T00:08:06;617.63;;;582.95;;
3591;SDS011;1810;48.720;9.094;2023-09-30T00:10:59;647.67;;;610.47;;
3591;SDS011;1810;48.720;9.094;2023-09-30T00:13:28;652.75;;;615.45;;
3591;SDS011;1810;48.720;9.094;2023-09-30T00:15:59;652.15;;;615.50;;
3591;SDS011;1810;48.720;9.094;2023-09-30T00:18:27;636.70;;;600.88;;
3591;SDS011;1810;48.720;9.094;2023-09-30T00:20:59;655.80;;;618.33;;
3591;SDS011;1810;48.720;9.094;2023-09-30T00:23:29;627.10;;;592.35;;
3591;SDS011;1810;48.720;9.094;2023-09-30T00:25:58;635.70;;;600.55;;
3591;SDS011;1810;48.720;9.094;2023-09-30T00:28:27;622.95;;;588.38;;
3591;SDS011;1810;48.720;9.094;2023-09-30T00:30:56;650.90;;;614.33;;
3591;SDS011;1810;48.720;9.094;2023-09-30T00:33:28;659.13;;;621.47;;
3591;SDS011;1810;48.720;9.094;2023-09-30T00:35:56;615.28;;;581.05;;
3591;SDS011;1810;48.720;9.094;2023-09-30T00:38:26;628.58;;;593.50;;
3591;SDS011;1810;48.720;9.094;2023-09-30T00:40:54;640.65;;;604.83;;
3591;SDS011;1810;48.720;9.094;2023-09-30T00:43:23;622.50;;;587.95;;
3591;SDS011;1810;48.720;9.094;2023-09-30T00:45:54;630.97;;;596.05;;
3591;SDS011;1810;48.720;9.094;2023-09-30T00:48:32;604.17;;;570.85;;
3591;SDS011;1810;48.720;9.094;2023-09-30T00:51:04;574.67;;;543.65;;
3591;SDS011;1810;48.720;9.094;2023-09-30T00:53:33;429.20;;;408.38;;
3591;SDS011;1810;48.720;9.094;2023-09-30T00:56:02;444.60;;;423.20;;
3591;SDS011;1810;48.720;9.094;2023-09-30T00:58:34;370.00;;;352.27;;
3591;SDS011;1810;48.720;9.094;2023-09-30T01:01:06;424.67;;;404.27;;
3591;SDS011;1810;48.720;9.094;2023-09-30T01:03:36;431.77;;;410.45;;
3591;SDS011;1810;48.720;9.094;2023-09-30T01:06:05;419.40;;;399.52;;
3591;SDS011;1810;48.720;9.094;2023-09-30T01:08:34;474.75;;;450.80;;
3591;SDS011;1810;48.720;9.094;2023-09-30T01:11:03;441.27;;;419.42;;
3591;SDS011;1810;48.720;9.094;2023-09-30T01:13:32;531.13;;;503.05;;
3591;SDS011;1810;48.720;9.094;2023-09-30T01:23:37;485.35;;;460.30;;
3591;SDS011;1810;48.720;9.094;2023-09-30T01:26:08;557.60;;;527.78;;
3591;SDS011;1810;48.720;9.094;2023-09-30T01:28:38;641.35;;;604.92;;
3591;SDS011;1810;48.720;9.094;2023-09-30T01:31:08;649.10;;;612.85;;
3591;SDS011;1810;48.720;9.094;2023-09-30T01:33:36;645.85;;;609.60;;
3591;SDS011;1810;48.720;9.094;2023-09-30T01:36:05;638.92;;;602.88;;
3591;SDS011;1810;48.720;9.094;2023-09-30T01:38:35;643.83;;;607.83;;
3591;SDS011;1810;48.720;9.094;2023-09-30T01:41:05;633.13;;;597.95;;
3591;SDS011;1810;48.720;9.094;2023-09-30T01:43:33;634.28;;;599.05;;
3591;SDS011;1810;48.720;9.094;2023-09-30T01:46:02;647.45;;;611.17;;
3591;SDS011;1810;48.720;9.094;2023-09-30T01:48:32;626.10;;;591.08;;
3591;SDS011;1810;48.720;9.094;2023-09-30T01:51:01;549.35;;;519.95;;
3591;SDS011;1810;48.720;9.094;2023-09-30T01:53:30;587.20;;;555.30;;
3591;SDS011;1810;48.720;9.094;2023-09-30T01:56:03;518.25;;;491.38;;
3591;SDS011;1810;48.720;9.094;2023-09-30T01:58:32;515.10;;;488.35;;
3591;SDS011;1810;48.720;9.094;2023-09-30T02:01:01;435.15;;;413.98;;
3591;SDS011;1810;48.720;9.094;2023-09-30T02:03:30;423.77;;;403.38;;
3591;SDS011;1810;48.720;9.094;2023-09-30T02:05:59;417.75;;;397.95;;
3591;SDS011;1810;48.720;9.094;2023-09-30T02:08:30;237.55;;;226.57;;
3591;SDS011;1810;48.720;9.094;2023-09-30T02:10:59;274.60;;;262.02;;
3591;SDS011;1810;48.720;9.094;2023-09-30T02:13:32;159.52;;;151.90;;
3591;SDS011;1810;48.720;9.094;2023-09-30T02:16:03;185.02;;;176.40;;
3591;SDS011;1810;48.720;9.094;2023-09-30T02:18:38;175.38;;;167.05;;
3591;SDS011;1810;48.720;9.094;2023-09-30T02:21:12;99.73;;;94.67;;
3591;SDS011;1810;48.720;9.094;2023-09-30T02:23:41;156.20;;;148.30;;
3591;SDS011;1810;48.720;9.094;2023-09-30T02:26:14;101.80;;;96.88;;
3591;SDS011;1810;48.720;9.094;2023-09-30T02:28:45;117.88;;;112.00;;
3591;SDS011;1810;48.720;9.094;2023-09-30T02:31:17;93.45;;;88.68;;
3591;SDS011;1810;48.720;9.094;2023-09-30T02:33:47;89.45;;;84.82;;
3591;SDS011;1810;48.720;9.094;2023-09-30T02:36:15;123.38;;;117.00;;
3591;SDS011;1810;48.720;9.094;2023-09-30T02:38:44;142.20;;;135.07;;
3591;SDS011;1810;48.720;9.094;2023-09-30T02:41:14;98.72;;;93.80;;
3591;SDS011;1810;48.720;9.094;2023-09-30T02:43:45;117.57;;;111.82;;
3591;SDS011;1810;48.720;9.094;2023-09-30T02:46:14;156.13;;;148.65;;
3591;SDS011;1810;48.720;9.094;2023-09-30T02:48:43;198.40;;;188.90;;
3591;SDS011;1810;48.720;9.094;2023-09-30T02:51:11;294.23;;;280.77;;
3591;SDS011;1810;48.720;9.094;2023-09-30T02:53:41;271.90;;;259.27;;
3591;SDS011;1810;48.720;9.094;2023-09-30T02:56:10;199.23;;;189.90;;
3591;SDS011;1810;48.720;9.094;2023-09-30T02:58:39;311.52;;;297.00;;
3591;SDS011;1810;48.720;9.094;2023-09-30T03:01:11;426.40;;;406.30;;
3591;SDS011;1810;48.720;9.094;2023-09-30T03:03:44;390.60;;;372.35;;
3591;SDS011;1810;48.720;9.094;2023-09-30T03:06:13;429.52;;;409.20;;
3591;SDS011;1810;48.720;9.094;2023-09-30T03:08:42;421.23;;;400.70;;
3591;SDS011;1810;48.720;9.094;2023-09-30T03:11:11;423.20;;;402.88;;
3591;SDS011;1810;48.720;9.094;2023-09-30T03:13:40;398.48;;;379.25;;
3591;SDS011;1810;48.720;9.094;2023-09-30T03:16:11;428.17;;;407.83;;
3591;SDS011;1810;48.720;9.094;2023-09-30T03:18:40;424.30;;;404.40;;
3591;SDS011;1810;48.720;9.094;2023-09-30T03:21:12;405.10;;;386.17;;
3591;SDS011;1810;48.720;9.094;2023-09-30T03:23:42;406.13;;;386.90;;
3591;SDS011;1810;48.720;9.094;2023-09-30T03:26:19;401.80;;;382.88;;
3591;SDS011;1810;48.720;9.094;2023-09-30T03:28:52;451.73;;;430.20;;
3591;SDS011;1810;48.720;9.094;2023-09-30T03:31:25;453.52;;;430.73;;
3591;SDS011;1810;48.720;9.094;2023-09-30T03:34:02;404.52;;;385.73;;
3591;SDS011;1810;48.720;9.094;2023-09-30T03:36:37;397.17;;;378.40;;
3591;SDS011;1810;48.720;9.094;2023-09-30T03:39:19;504.40;;;478.27;;
3591;SDS011;1810;48.720;9.094;2023-09-30T03:41:56;427.75;;;406.67;;
3591;SDS011;1810;48.720;9.094;2023-09-30T03:44:36;400.67;;;381.50;;
3591;SDS011;1810;48.720;9.094;2023-09-30T03:47:10;532.95;;;504.95;;
3591;SDS011;1810;48.720;9.094;2023-09-30T03:49:41;619.13;;;584.67;;
3591;SDS011;1810;48.720;9.094;2023-09-30T03:52:11;549.97;;;521.08;;
3591;SDS011;1810;48.720;9.094;2023-09-30T03:54:41;654.00;;;617.20;;
3591;SDS011;1810;48.720;9.094;2023-09-30T03:57:10;606.83;;;573.70;;
3591;SDS011;1810;48.720;9.094;2023-09-30T03:59:42;617.85;;;583.80;;
3591;SDS011;1810;48.720;9.094;2023-09-30T04:02:14;544.38;;;515.35;;
3591;SDS011;1810;48.720;9.094;2023-09-30T04:04:43;553.95;;;524.38;;
3591;SDS011;1810;48.720;9.094;2023-09-30T04:07:13;409.50;;;389.50;;
3591;SDS011;1810;48.720;9.094;2023-09-30T04:09:45;504.58;;;478.73;;
3591;SDS011;1810;48.720;9.094;2023-09-30T04:12:16;472.05;;;448.17;;
3591;SDS011;1810;48.720;9.094;2023-09-30T04:14:45;428.95;;;408.10;;
3591;SDS011;1810;48.720;9.094;2023-09-30T04:17:17;492.85;;;468.05;;
3591;SDS011;1810;48.720;9.094;2023-09-30T04:19:49;541.75;;;513.30;;
3591;SDS011;1810;48.720;9.094;2023-09-30T04:22:26;572.88;;;541.90;;
3591;SDS011;1810;48.720;9.094;2023-09-30T04:25:00;403.30;;;383.80;;
3591;SDS011;1810;48.720;9.094;2023-09-30T04:27:32;441.58;;;420.05;;
3591;SDS011;1810;48.720;9.094;2023-09-30T04:30:02;429.42;;;408.92;;
3591;SDS011;1810;48.720;9.094;2023-09-30T04:32:38;437.27;;;415.70;;
3591;SDS011;1810;48.720;9.094;2023-09-30T04:35:07;601.80;;;568.80;;
3591;SDS011;1810;48.720;9.094;2023-09-30T04:37:39;524.10;;;497.15;;
3591;SDS011;1810;48.720;9.094;2023-09-30T04:40:10;441.60;;;419.83;;
3591;SDS011;1810;48.720;9.094;2023-09-30T04:42:47;441.58;;;419.38;;
3591;SDS011;1810;48.720;9.094;2023-09-30T04:45:16;519.40;;;492.52;;
3591;SDS011;1810;48.720;9.094;2023-09-30T04:47:51;442.52;;;420.50;;
3591;SDS011;1810;48.720;9.094;2023-09-30T04:50:22;425.13;;;404.75;;
3591;SDS011;1810;48.720;9.094;2023-09-30T04:52:54;408.50;;;389.00;;
3591;SDS011;1810;48.720;9.094;2023-09-30T04:55:25;499.88;;;474.30;;
3591;SDS011;1810;48.720;9.094;2023-09-30T04:58:04;596.17;;;563.95;;
3591;SDS011;1810;48.720;9.094;2023-09-30T05:00:36;481.80;;;457.10;;
3591;SDS011;1810;48.720;9.094;2023-09-30T05:03:10;496.50;;;471.85;;
3591;SDS011;1810;48.720;9.094;2023-09-30T05:05:39;445.08;;;423.13;;
3591;SDS011;1810;48.720;9.094;2023-09-30T05:08:19;447.83;;;425.80;;
3591;SDS011;1810;48.720;9.094;2023-09-30T05:10:56;492.50;;;467.42;;
3591;SDS011;1810;48.720;9.094;2023-09-30T05:13:25;527.60;;;499.50;;
3591;SDS011;1810;48.720;9.094;2023-09-30T05:15:56;474.83;;;450.95;;
3591;SDS011;1810;48.720;9.094;2023-09-30T05:18:27;483.38;;;459.30;;
3591;SDS011;1810;48.720;9.094;2023-09-30T05:21:02;445.25;;;423.23;;
3591;SDS011;1810;48.720;9.094;2023-09-30T05:23:31;437.67;;;416.48;;
3591;SDS011;1810;48.720;9.094;2023-09-30T05:26:00;415.55;;;395.05;;
3591;SDS011;1810;48.720;9.094;2023-09-30T05:28:30;459.88;;;436.85;;
3591;SDS011;1810;48.720;9.094;2023-09-30T05:31:01;432.10;;;410.65;;
3591;SDS011;1810;48.720;9.094;2023-09-30T05:33:34;456.00;;;432.88;;
3591;SDS011;1810;48.720;9.094;2023-09-30T05:36:04;474.10;;;450.33;;
3591;SDS011;1810;48.720;9.094;2023-09-30T05:38:33;467.60;;;444.17;;
3591;SDS011;1810;48.720;9.094;2023-09-30T05:41:02;431.70;;;410.30;;
3591;SDS011;1810;48.720;9.094;2023-09-30T05:43:32;448.77;;;427.05;;
3591;SDS011;1810;48.720;9.094;2023-09-30T05:46:02;424.77;;;404.48;;
3591;SDS011;1810;48.720;9.094;2023-09-30T05:48:41;425.58;;;405.52;;
3591;SDS011;1810;48.720;9.094;2023-09-30T05:51:11;455.70;;;433.70;;
3591;SDS011;1810;48.720;9.094;2023-09-30T05:53:42;430.75;;;410.45;;
3591;SDS011;1810;48.720;9.094;2023-09-30T05:56:13;400.90;;;381.58;;
3591;SDS011;1810;48.720;9.094;2023-09-30T05:58:42;331.88;;;316.38;;
3591;SDS011;1810;48.720;9.094;2023-09-30T06:01:11;412.02;;;392.73;;
3591;SDS011;1810;48.720;9.094;2023-09-30T06:03:51;377.70;;;360.20;;
3591;SDS011;1810;48.720;9.094;2023-09-30T06:06:24;401.02;;;382.30;;
3591;SDS011;1810;48.720;9.094;2023-09-30T06:08:55;523.40;;;496.27;;
3591;SDS011;1810;48.720;9.094;2023-09-30T06:11:28;609.33;;;575.30;;
3591;SDS011;1810;48.720;9.094;2023-09-30T06:13:57;487.25;;;462.70;;
3591;SDS011;1810;48.720;9.094;2023-09-30T06:16:33;647.90;;;611.28;;
3591;SDS011;1810;48.720;9.094;2023-09-30T06:19:05;657.60;;;619.95;;
3591;SDS011;1810;48.720;9.094;2023-09-30T06:21:38;663.88;;;626.10;;
3591;SDS011;1810;48.720;9.094;2023-09-30T06:24:09;637.72;;;601.20;;
3591;SDS011;1810;48.720;9.094;2023-09-30T06:26:38;622.55;;;588.25;;
3591;SDS011;1810;48.720;9.094;2023-09-30T06:29:18;622.72;;;587.75;;
3591;SDS011;1810;48.720;9.094;2023-09-30T06:31:50;648.88;;;611.67;;
3591;SDS011;1810;48.720;9.094;2023-09-30T06:34:20;687.35;;;646.45;;
3591;SDS011;1810;48.720;9.094;2023-09-30T06:36:54;658.28;;;620.25;;
3591;SDS011;1810;48.720;9.094;2023-09-30T06:39:23;650.30;;;612.80;;
3591;SDS011;1810;48.720;9.094;2023-09-30T06:41:55;630.83;;;595.45;;
3591;SDS011;1810;48.720;9.094;2023-09-30T06:44:33;725.72;;;681.13;;
3591;SDS011;1810;48.720;9.094;2023-09-30T06:47:09;736.10;;;690.40;;
3591;SDS011;1810;48.720;9.094;2023-09-30T06:49:47;687.30;;;646.47;;
3591;SDS011;1810;48.720;9.094;2023-09-30T06:52:17;763.70;;;714.83;;
3591;SDS011;1810;48.720;9.094;2023-09-30T06:54:56;778.20;;;727.75;;
3591;SDS011;1810;48.720;9.094;2023-09-30T06:58:23;827.25;;;773.05;;
3591;SDS011;1810;48.720;9.094;2023-09-30T07:01:45;806.03;;;753.30;;
3591;SDS011;1810;48.720;9.094;2023-09-30T07:04:18;741.75;;;695.42;;
3591;SDS011;1810;48.720;9.094;2023-09-30T07:06:49;749.80;;;702.55;;
3591;SDS011;1810;48.720;9.094;2023-09-30T07:09:18;748.97;;;701.28;;
3591;SDS011;1810;48.720;9.094;2023-09-30T07:11:47;763.33;;;715.00;;
3591;SDS011;1810;48.720;9.094;2023-09-30T07:14:16;749.08;;;701.58;;
3591;SDS011;1810;48.720;9.094;2023-09-30T07:16:45;749.92;;;702.22;;
3591;SDS011;1810;48.720;9.094;2023-09-30T07:19:13;745.72;;;698.63;;
3591;SDS011;1810;48.720;9.094;2023-09-30T07:21:42;785.97;;;734.90;;
3591;SDS011;1810;48.720;9.094;2023-09-30T07:24:26;747.33;;;700.70;;
3591;SDS011;1810;48.720;9.094;2023-09-30T07:26:55;772.08;;;722.22;;
3591;SDS011;1810;48.720;9.094;2023-09-30T07:29:26;774.35;;;724.58;;
3591;SDS011;1810;48.720;9.094;2023-09-30T07:32:00;775.08;;;724.80;;
3591;SDS011;1810;48.720;9.094;2023-09-30T07:38:22;837.05;;;781.40;;
3591;SDS011;1810;48.720;9.094;2023-09-30T07:43:39;797.20;;;745.80;;
3591;SDS011;1810;48.720;9.094;2023-09-30T07:53:53;823.75;;;768.97;;
3591;SDS011;1810;48.720;9.094;2023-09-30T07:56:41;802.75;;;750.60;;
3591;SDS011;1810;48.720;9.094;2023-09-30T07:59:10;752.47;;;705.25;;
3591;SDS011;1810;48.720;9.094;2023-09-30T08:02:52;751.05;;;703.17;;
3591;SDS011;1810;48.720;9.094;2023-09-30T08:05:21;806.83;;;753.95;;
3591;SDS011;1810;48.720;9.094;2023-09-30T08:07:49;836.42;;;781.00;;
3591;SDS011;1810;48.720;9.094;2023-09-30T08:10:18;823.13;;;768.60;;
3591;SDS011;1810;48.720;9.094;2023-09-30T08:12:48;865.55;;;806.90;;
3591;SDS011;1810;48.720;9.094;2023-09-30T08:15:17;893.70;;;831.83;;
3591;SDS011;1810;48.720;9.094;2023-09-30T08:17:46;902.40;;;840.00;;
3591;SDS011;1810;48.720;9.094;2023-09-30T08:20:14;868.20;;;809.63;;
3591;SDS011;1810;48.720;9.094;2023-09-30T08:22:43;854.97;;;796.90;;
3591;SDS011;1810;48.720;9.094;2023-09-30T08:25:11;843.80;;;786.95;;
3591;SDS011;1810;48.720;9.094;2023-09-30T08:27:41;853.30;;;795.83;;
3591;SDS011;1810;48.720;9.094;2023-09-30T08:30:13;887.10;;;825.53;;
3591;SDS011;1810;48.720;9.094;2023-09-30T08:32:41;849.35;;;792.47;;
3591;SDS011;1810;48.720;9.094;2023-09-30T08:35:10;867.70;;;808.47;;
3591;SDS011;1810;48.720;9.094;2023-09-30T08:37:40;848.53;;;791.28;;
3591;SDS011;1810;48.720;9.094;2023-09-30T08:43:12;853.28;;;795.83;;
3591;SDS011;1810;48.720;9.094;2023-09-30T08:46:01;861.28;;;803.03;;
3591;SDS011;1810;48.720;9.094;2023-09-30T08:48:34;869.72;;;810.58;;
3591;SDS011;1810;48.720;9.094;2023-09-30T08:51:10;848.35;;;791.50;;
3591;SDS011;1810;48.720;9.094;2023-09-30T08:53:51;834.75;;;779.13;;
3591;SDS011;1810;48.720;9.094;2023-09-30T08:56:33;857.22;;;799.55;;
3591;SDS011;1810;48.720;9.094;2023-09-30T08:59:19;848.80;;;792.08;;
3591;SDS011;1810;48.720;9.094;2023-09-30T09:01:49;867.83;;;808.65;;
3591;SDS011;1810;48.720;9.094;2023-09-30T09:04:23;884.72;;;823.78;;
3591;SDS011;1810;48.720;9.094;2023-09-30T09:07:11;836.88;;;780.60;;
3591;SDS011;1810;48.720;9.094;2023-09-30T09:09:40;849.85;;;792.72;;
3591;SDS011;1810;48.720;9.094;2023-09-30T09:12:18;879.25;;;818.60;;
3591;SDS011;1810;48.720;9.094;2023-09-30T09:14:52;882.00;;;821.42;;
3591;SDS011;1810;48.720;9.094;2023-09-30T09:17:23;831.35;;;775.78;;
3591;SDS011;1810;48.720;9.094;2023-09-30T09:19:59;827.67;;;772.33;;
3591;SDS011;1810;48.720;9.094;2023-09-30T09:22:37;876.05;;;816.05;;
3591;SDS011;1810;48.720;9.094;2023-09-30T09:25:06;1003.08;;;920.55;;
3591;SDS011;1810;48.720;9.094;2023-09-30T09:27:35;861.42;;;803.47;;
3591;SDS011;1810;48.720;9.094;2023-09-30T09:30:16;908.55;;;844.53;;
3591;SDS011;1810;48.720;9.094;2023-09-30T09:33:00;850.42;;;792.22;;
3591;SDS011;1810;48.720;9.094;2023-09-30T09:35:32;875.42;;;815.90;;
3591;SDS011;1810;48.720;9.094;2023-09-30T09:38:02;866.40;;;808.08;;
3591;SDS011;1810;48.720;9.094;2023-09-30T09:40:33;875.60;;;816.13;;
3591;SDS011;1810;48.720;9.094;2023-09-30T09:43:16;859.50;;;801.17;;
3591;SDS011;1810;48.720;9.094;2023-09-30T09:46:07;877.20;;;816.85;;
3591;SDS011;1810;48.720;9.094;2023-09-30T09:49:01;880.65;;;820.22;;
3591;SDS011;1810;48.720;9.094;2023-09-30T09:52:00;916.33;;;851.17;;
3591;SDS011;1810;48.720;9.094;2023-09-30T09:54:30;903.55;;;840.33;;
3591;SDS011;1810;48.720;9.094;2023-09-30T09:57:00;898.58;;;835.33;;
3591;SDS011;1810;48.720;9.094;2023-09-30T09:59:29;893.92;;;830.67;;
3591;SDS011;1810;48.720;9.094;2023-09-30T10:02:01;909.38;;;845.05;;
3591;SDS011;1810;48.720;9.094;2023-09-30T10:04:41;959.80;;;888.45;;
3591;SDS011;1810;48.720;9.094;2023-09-30T10:09:46;917.25;;;851.78;;
3591;SDS011;1810;48.720;9.094;2023-09-30T10:12:18;942.50;;;873.88;;
3591;SDS011;1810;48.720;9.094;2023-09-30T10:14:52;968.45;;;896.10;;
3591;SDS011;1810;48.720;9.094;2023-09-30T10:20:28;1053.85;;;962.35;;
3591;SDS011;1810;48.720;9.094;2023-09-30T10:25:46;954.88;;;884.10;;
3591;SDS011;1810;48.720;9.094;2023-09-30T10:28:34;1020.08;;;939.55;;
3591;SDS011;1810;48.720;9.094;2023-09-30T10:31:11;984.10;;;908.72;;
3591;SDS011;1810;48.720;9.094;2023-09-30T10:36:50;1010.85;;;931.30;;
3591;SDS011;1810;48.720;9.094;2023-09-30T10:48:36;1055.22;;;967.58;;
3591;SDS011;1810;48.720;9.094;2023-09-30T10:53:54;991.08;;;915.22;;
3591;SDS011;1810;48.720;9.094;2023-09-30T10:56:31;989.15;;;912.90;;
3591;SDS011;1810;48.720;9.094;2023-09-30T10:59:00;965.23;;;892.67;;
3591;SDS011;1810;48.720;9.094;2023-09-30T11:01:32;1142.03;;;999.90;;
3591;SDS011;1810;48.720;9.094;2023-09-30T11:04:02;1030.97;;;947.63;;
3591;SDS011;1810;48.720;9.094;2023-09-30T11:06:32;1052.20;;;964.92;;
3591;SDS011;1810;48.720;9.094;2023-09-30T11:09:07;1015.25;;;933.42;;
3591;SDS011;1810;48.720;9.094;2023-09-30T11:11:45;1012.65;;;932.33;;
3591;SDS011;1810;48.720;9.094;2023-09-30T11:14:37;1004.40;;;925.75;;
3591;SDS011;1810;48.720;9.094;2023-09-30T11:17:38;1055.65;;;968.40;;
3591;SDS011;1810;48.720;9.094;2023-09-30T11:20:24;1064.78;;;970.72;;
3591;SDS011;1810;48.720;9.094;2023-09-30T11:23:05;1014.25;;;934.22;;
3591;SDS011;1810;48.720;9.094;2023-09-30T11:25:39;1022.92;;;941.72;;
3591;SDS011;1810;48.720;9.094;2023-09-30T11:28:17;1030.80;;;947.40;;
3591;SDS011;1810;48.720;9.094;2023-09-30T11:30:54;1023.03;;;940.25;;
3591;SDS011;1810;48.720;9.094;2023-09-30T11:33:24;1027.13;;;944.05;;
3591;SDS011;1810;48.720;9.094;2023-09-30T11:35:56;1015.55;;;935.13;;
3591;SDS011;1810;48.720;9.094;2023-09-30T11:38:27;1055.28;;;965.10;;
3591;SDS011;1810;48.720;9.094;2023-09-30T11:41:00;1032.10;;;947.90;;
3591;SDS011;1810;48.720;9.094;2023-09-30T11:43:31;1082.38;;;986.60;;
3591;SDS011;1810;48.720;9.094;2023-09-30T11:46:04;1029.32;;;946.30;;
3591;SDS011;1810;48.720;9.094;2023-09-30T11:51:04;1010.55;;;930.35;;
3591;SDS011;1810;48.720;9.094;2023-09-30T11:53:40;1010.38;;;931.38;;
3591;SDS011;1810;48.720;9.094;2023-09-30T11:56:25;998.80;;;921.00;;
3591;SDS011;1810;48.720;9.094;2023-09-30T11:59:02;1059.03;;;970.47;;
3591;SDS011;1810;48.720;9.094;2023-09-30T12:01:42;1033.38;;;949.53;;
3591;SDS011;1810;48.720;9.094;2023-09-30T12:04:24;1000.10;;;922.00;;
3591;SDS011;1810;48.720;9.094;2023-09-30T12:06:53;1015.47;;;935.72;;
3591;SDS011;1810;48.720;9.094;2023-09-30T12:12:03;997.97;;;919.97;;
3591;SDS011;1810;48.720;9.094;2023-09-30T12:14:36;1008.28;;;928.28;;
3591;SDS011;1810;48.720;9.094;2023-09-30T12:17:08;969.15;;;896.22;;
3591;SDS011;1810;48.720;9.094;2023-09-30T12:19:43;974.42;;;901.38;;
3591;SDS011;1810;48.720;9.094;2023-09-30T12:22:13;986.35;;;911.33;;
3591;SDS011;1810;48.720;9.094;2023-09-30T12:24:41;956.60;;;884.40;;
3591;SDS011;1810;48.720;9.094;2023-09-30T12:27:14;1028.95;;;947.05;;
3591;SDS011;1810;48.720;9.094;2023-09-30T12:29:46;975.77;;;901.97;;
3591;SDS011;1810;48.720;9.094;2023-09-30T12:32:22;995.35;;;918.17;;
3591;SDS011;1810;48.720;9.094;2023-09-30T12:34:53;953.10;;;882.55;;
3591;SDS011;1810;48.720;9.094;2023-09-30T12:37:23;945.95;;;876.15;;
3591;SDS011;1810;48.720;9.094;2023-09-30T12:39:55;968.15;;;895.25;;
3591;SDS011;1810;48.720;9.094;2023-09-30T12:42:29;969.70;;;896.83;;
3591;SDS011;1810;48.720;9.094;2023-09-30T12:44:58;982.78;;;907.28;;
3591;SDS011;1810;48.720;9.094;2023-09-30T12:47:32;918.40;;;853.25;;
3591;SDS011;1810;48.720;9.094;2023-09-30T12:50:01;1073.95;;;975.83;;
3591;SDS011;1810;48.720;9.094;2023-09-30T12:52:30;918.00;;;852.35;;
3591;SDS011;1810;48.720;9.094;2023-09-30T12:55:04;924.28;;;858.70;;
3591;SDS011;1810;48.720;9.094;2023-09-30T12:57:34;911.03;;;845.38;;
3591;SDS011;1810;48.720;9.094;2023-09-30T13:00:08;951.97;;;881.40;;
3591;SDS011;1810;48.720;9.094;2023-09-30T13:02:37;966.72;;;892.45;;
3591;SDS011;1810;48.720;9.094;2023-09-30T13:05:06;978.88;;;904.30;;
3591;SDS011;1810;48.720;9.094;2023-09-30T13:07:35;964.72;;;893.15;;
3591;SDS011;1810;48.720;9.094;2023-09-30T13:10:05;1027.40;;;944.35;;
3591;SDS011;1810;48.720;9.094;2023-09-30T13:12:35;976.00;;;901.55;;
3591;SDS011;1810;48.720;9.094;2023-09-30T13:15:05;1015.80;;;934.70;;
3591;SDS011;1810;48.720;9.094;2023-09-30T13:17:35;976.60;;;902.15;;
3591;SDS011;1810;48.720;9.094;2023-09-30T13:20:04;990.72;;;914.03;;
3591;SDS011;1810;48.720;9.094;2023-09-30T13:22:35;981.40;;;906.50;;
3591;SDS011;1810;48.720;9.094;2023-09-30T13:25:05;944.03;;;874.15;;
3591;SDS011;1810;48.720;9.094;2023-09-30T13:27:40;946.40;;;877.05;;
3591;SDS011;1810;48.720;9.094;2023-09-30T13:30:09;971.47;;;898.22;;
3591;SDS011;1810;48.720;9.094;2023-09-30T13:32:39;957.65;;;886.60;;
3591;SDS011;1810;48.720;9.094;2023-09-30T13:35:08;994.63;;;919.00;;
3591;SDS011;1810;48.720;9.094;2023-09-30T13:37:37;979.95;;;904.92;;
3591;SDS011;1810;48.720;9.094;2023-09-30T13:40:08;1029.97;;;945.63;;
3591;SDS011;1810;48.720;9.094;2023-09-30T13:42:41;1003.63;;;925.17;;
3591;SDS011;1810;48.720;9.094;2023-09-30T13:45:10;979.90;;;904.60;;
3591;SDS011;1810;48.720;9.094;2023-09-30T13:47:39;958.05;;;886.70;;
3591;SDS011;1810;48.720;9.094;2023-09-30T13:50:08;978.58;;;906.08;;
3591;SDS011;1810;48.720;9.094;2023-09-30T13:52:39;941.00;;;872.70;;
3591;SDS011;1810;48.720;9.094;2023-09-30T13:55:11;961.10;;;890.70;;
3591;SDS011;1810;48.720;9.094;2023-09-30T13:57:46;992.67;;;915.92;;
3591;SDS011;1810;48.720;9.094;2023-09-30T14:00:16;912.80;;;848.00;;
3591;SDS011;1810;48.720;9.094;2023-09-30T14:02:44;969.90;;;896.17;;
3591;SDS011;1810;48.720;9.094;2023-09-30T14:05:16;970.20;;;896.85;;
3591;SDS011;1810;48.720;9.094;2023-09-30T14:07:46;896.55;;;834.00;;
3591;SDS011;1810;48.720;9.094;2023-09-30T14:10:15;926.97;;;860.17;;
3591;SDS011;1810;48.720;9.094;2023-09-30T14:12:46;926.97;;;859.58;;
3591;SDS011;1810;48.720;9.094;2023-09-30T14:15:15;970.92;;;897.03;;
3591;SDS011;1810;48.720;9.094;2023-09-30T14:17:43;999.42;;;922.30;;
3591;SDS011;1810;48.720;9.094;2023-09-30T14:20:14;990.55;;;913.78;;
3591;SDS011;1810;48.720;9.094;2023-09-30T14:22:42;1009.17;;;929.67;;
3591;SDS011;1810;48.720;9.094;2023-09-30T14:25:15;986.83;;;910.97;;
3591;SDS011;1810;48.720;9.094;2023-09-30T14:27:44;1021.10;;;939.10;;
3591;SDS011;1810;48.720;9.094;2023-09-30T14:30:14;989.75;;;913.65;;
3591;SDS011;1810;48.720;9.094;2023-09-30T14:32:52;993.78;;;916.72;;
3591;SDS011;1810;48.720;9.094;2023-09-30T14:35:21;1002.03;;;923.03;;
3591;SDS011;1810;48.720;9.094;2023-09-30T14:37:53;1037.43;;;952.25;;
3591;SDS011;1810;48.720;9.094;2023-09-30T14:40:23;1013.15;;;933.45;;
3591;SDS011;1810;48.720;9.094;2023-09-30T14:42:52;1016.75;;;935.13;;
3591;SDS011;1810;48.720;9.094;2023-09-30T14:45:22;1050.63;;;963.00;;
3591;SDS011;1810;48.720;9.094;2023-09-30T14:47:53;995.05;;;917.92;;
3591;SDS011;1810;48.720;9.094;2023-09-30T14:50:22;995.17;;;918.05;;
3591;SDS011;1810;48.720;9.094;2023-09-30T14:52:52;1020.35;;;939.90;;
3591;SDS011;1810;48.720;9.094;2023-09-30T14:55:20;1060.30;;;970.13;;
3591;SDS011;1810;48.720;9.094;2023-09-30T14:57:49;1022.15;;;940.25;;
3591;SDS011;1810;48.720;9.094;2023-09-30T15:00:23;976.25;;;901.28;;
3591;SDS011;1810;48.720;9.094;2023-09-30T15:02:55;1009.67;;;928.83;;
3591;SDS011;1810;48.720;9.094;2023-09-30T15:05:24;998.63;;;920.03;;
3591;SDS011;1810;48.720;9.094;2023-09-30T15:07:52;961.40;;;889.35;;
3591;SDS011;1810;48.720;9.094;2023-09-30T15:10:27;998.47;;;920.40;;
3591;SDS011;1810;48.720;9.094;2023-09-30T15:12:56;996.17;;;918.78;;
3591;SDS011;1810;48.720;9.094;2023-09-30T15:15:26;1012.28;;;931.58;;
3591;SDS011;1810;48.720;9.094;2023-09-30T15:17:54;1004.70;;;924.95;;
3591;SDS011;1810;48.720;9.094;2023-09-30T15:20:23;1055.47;;;967.35;;
3591;SDS011;1810;48.720;9.094;2023-09-30T15:22:52;1018.30;;;937.00;;
3591;SDS011;1810;48.720;9.094;2023-09-30T15:25:21;1052.55;;;964.83;;
3591;SDS011;1810;48.720;9.094;2023-09-30T15:27:49;1015.70;;;934.90;;
3591;SDS011;1810;48.720;9.094;2023-09-30T15:30:18;1019.63;;;938.17;;
3591;SDS011;1810;48.720;9.094;2023-09-30T15:32:48;1019.08;;;937.40;;
3591;SDS011;1810;48.720;9.094;2023-09-30T15:35:20;1061.35;;;972.85;;
3591;SDS011;1810;48.720;9.094;2023-09-30T15:37:58;1026.50;;;944.03;;
3591;SDS011;1810;48.720;9.094;2023-09-30T15:40:27;1018.85;;;937.20;;
3591;SDS011;1810;48.720;9.094;2023-09-30T15:43:03;1023.30;;;941.13;;